Time;durP1;ratioP1;P1;durP2;ratioP2;P2;SDS_P1;SDS_P2;PMS_P1;PMS_P2;Temp;Humidity;BMP_temperature;BMP_pressure;BME280_temperature;BME280_humidity;BME280_pressure;Samples;Min_cycle;Max_cycle;Signal;HPM_P1;HPM_P2
2022/04/20 00:01:29;;;;;;;0.00;0.00;;;11.10;63.00;;;;;;4912978;29;20396;-65
2022/04/20 00:03:54;;;;;;;0.00;0.00;;;11.00;63.30;;;;;;4914514;29;20087;-65
2022/04/20 00:06:20;;;;;;;0.00;0.00;;;11.00;63.70;;;;;;4913086;29;20027;-65
2022/04/20 00:08:46;;;;;;;0.10;0.10;;;10.90;63.40;;;;;;4913132;29;20119;-65
2022/04/20 00:11:11;;;;;;;0.00;0.00;;;10.90;63.90;;;;;;4913364;29;20043;-65
2022/04/20 00:13:37;;;;;;;0.00;0.00;;;10.90;64.40;;;;;;4914498;29;20295;-65
2022/04/20 00:16:03;;;;;;;0.00;0.00;;;10.90;63.80;;;;;;4913282;29;20031;-65
2022/04/20 00:18:29;;;;;;;0.00;0.00;;;10.80;64.60;;;;;;4914071;29;20473;-65
2022/04/20 00:20:55;;;;;;;0.22;0.22;;;10.70;64.50;;;;;;4914287;29;20043;-64
2022/04/20 00:23:20;;;;;;;0.00;0.00;;;10.80;64.70;;;;;;4912739;29;20036;-64
2022/04/20 00:25:46;;;;;;;0.30;0.30;;;10.70;64.70;;;;;;4914319;29;20469;-65
2022/04/20 00:28:12;;;;;;;0.40;0.40;;;10.60;64.90;;;;;;4914064;29;20039;-65
2022/04/20 00:30:37;;;;;;;0.00;0.00;;;10.50;65.00;;;;;;4914389;29;20059;-65
2022/04/20 00:33:03;;;;;;;0.20;0.20;;;10.50;65.40;;;;;;4914345;29;20051;-65
2022/04/20 00:35:30;;;;;;;0.00;0.00;;;10.70;64.90;;;;;;4914442;29;20396;-65
2022/04/20 00:37:55;;;;;;;0.00;0.00;;;10.70;64.60;;;;;;4912724;29;20036;-65
2022/04/20 00:40:21;;;;;;;0.30;0.30;;;10.80;64.20;;;;;;4912859;29;20032;-65
2022/04/20 00:42:48;;;;;;;0.00;0.00;;;10.90;64.10;;;;;;4912784;29;20038;-64
2022/04/20 00:45:14;;;;;;;0.00;0.00;;;10.70;64.20;;;;;;4912669;29;20041;-64
2022/04/20 00:47:43;;;;;;;1.00;0.88;;;10.70;64.90;;;;;;4913963;29;20028;-64
2022/04/20 00:50:10;;;;;;;0.00;0.00;;;10.60;64.70;;;;;;4914227;29;20060;-64
2022/04/20 00:52:37;;;;;;;0.00;0.00;;;10.60;65.20;;;;;;4917588;29;20180;-64
2022/04/20 00:55:04;;;;;;;0.00;0.00;;;10.40;65.20;;;;;;4916725;29;20043;-64
2022/04/20 00:57:30;;;;;;;0.00;0.00;;;10.30;65.80;;;;;;4915975;29;20034;-64
2022/04/20 00:59:59;;;;;;;0.00;0.00;;;10.30;65.90;;;;;;4916501;29;20092;-65
2022/04/20 01:02:27;;;;;;;0.00;0.00;;;10.30;65.80;;;;;;4917659;29;20046;-64
2022/04/20 01:04:53;;;;;;;0.00;0.00;;;10.40;66.40;;;;;;4924021;29;20058;-64
2022/04/20 01:07:19;;;;;;;0.25;0.25;;;10.20;66.30;;;;;;4937701;29;20740;-64
2022/04/20 01:09:45;;;;;;;0.00;0.00;;;10.20;66.60;;;;;;4944741;29;20036;-64
2022/04/20 01:12:14;;;;;;;0.00;0.00;;;10.20;66.60;;;;;;4950063;29;20023;-66
2022/04/20 01:14:41;;;;;;;0.13;0.13;;;10.10;67.00;;;;;;4950716;28;20043;-65
2022/04/20 01:17:07;;;;;;;0.00;0.00;;;10.10;67.50;;;;;;4949170;29;20480;-65
2022/04/20 01:19:35;;;;;;;0.08;0.08;;;10.00;67.30;;;;;;4949473;29;20043;-65
2022/04/20 01:22:05;;;;;;;0.00;0.00;;;9.90;67.90;;;;;;4949636;29;20031;-64
2022/04/20 01:24:32;;;;;;;0.00;0.00;;;9.80;69.00;;;;;;4961017;28;20114;-64
2022/04/20 01:26:59;;;;;;;0.00;0.00;;;9.40;69.20;;;;;;4953417;28;20027;-64
2022/04/20 01:29:28;;;;;;;1.67;0.90;;;9.40;69.50;;;;;;4936646;29;20097;-65
2022/04/20 01:31:56;;;;;;;1.08;0.82;;;9.40;70.00;;;;;;4953765;29;20039;-65
2022/04/20 01:34:22;;;;;;;0.00;0.00;;;9.40;69.80;;;;;;4953735;28;20027;-65
2022/04/20 01:36:49;;;;;;;0.00;0.00;;;9.50;70.10;;;;;;4953651;29;20039;-65
2022/04/20 01:39:15;;;;;;;0.20;0.20;;;9.50;70.20;;;;;;4953742;29;20489;-65
2022/04/20 01:41:42;;;;;;;0.00;0.00;;;9.50;70.40;;;;;;4941490;29;20046;-65
2022/04/20 01:44:07;;;;;;;0.28;0.20;;;9.50;70.80;;;;;;4935511;29;20722;-65
2022/04/20 01:46:33;;;;;;;0.00;0.00;;;9.40;70.90;;;;;;4966129;28;20035;-64
2022/04/20 01:48:59;;;;;;;0.00;0.00;;;9.40;70.90;;;;;;4966377;28;20040;-65
2022/04/20 01:54:11;;;;;;;0.00;0.00;;;9.40;70.80;;;;;;4961598;28;20023;-65
2022/04/20 01:56:37;;;;;;;0.00;0.00;;;9.50;70.80;;;;;;4935325;29;20485;-64
2022/04/20 01:59:03;;;;;;;0.00;0.00;;;9.50;70.70;;;;;;4966420;28;20063;-65
2022/04/20 02:04:13;;;;;;;0.00;0.00;;;9.40;71.80;;;;;;4961368;28;20039;-64
2022/04/20 02:06:39;;;;;;;0.00;0.00;;;9.30;71.70;;;;;;4935090;29;20067;-64
2022/04/20 02:09:05;;;;;;;0.00;0.00;;;9.20;72.20;;;;;;4966234;28;20164;-64
2022/04/20 02:11:31;;;;;;;0.00;0.00;;;9.10;72.70;;;;;;4935291;29;20039;-64
2022/04/20 02:13:58;;;;;;;0.82;0.35;;;9.10;73.20;;;;;;4934778;29;20102;-64
2022/04/20 02:16:24;;;;;;;0.00;0.00;;;9.10;72.60;;;;;;4951983;29;20174;-64
2022/04/20 02:18:50;;;;;;;0.00;0.00;;;9.10;72.50;;;;;;4953022;29;20038;-64
2022/04/20 02:21:16;;;;;;;0.10;0.10;;;9.00;73.10;;;;;;4954436;28;20035;-64
2022/04/20 02:23:41;;;;;;;0.10;0.08;;;9.00;73.30;;;;;;4954126;28;20055;-65
2022/04/20 02:26:07;;;;;;;1.10;1.00;;;9.10;73.20;;;;;;4952795;28;20416;-65
2022/04/20 02:28:33;;;;;;;0.00;0.00;;;9.00;73.60;;;;;;4953830;28;20090;-65
2022/04/20 02:30:59;;;;;;;0.00;0.00;;;8.90;73.90;;;;;;4953214;29;20086;-65
2022/04/20 02:33:24;;;;;;;0.00;0.00;;;8.90;74.00;;;;;;4952718;29;20027;-65
2022/04/20 02:35:51;;;;;;;0.20;0.20;;;8.90;74.30;;;;;;4952744;28;20073;-65
2022/04/20 02:38:17;;;;;;;0.10;0.10;;;9.00;74.20;;;;;;4952288;29;20034;-65
2022/04/20 02:40:44;;;;;;;0.00;0.00;;;9.00;74.30;;;;;;4952803;29;20034;-65
2022/04/20 02:43:10;;;;;;;0.10;0.10;;;9.00;74.50;;;;;;4953426;28;20980;-65
2022/04/20 02:45:37;;;;;;;0.08;0.08;;;9.00;74.10;;;;;;4953638;28;20035;-65
2022/04/20 02:48:03;;;;;;;0.25;0.25;;;9.20;73.90;;;;;;4953611;28;20395;-65
2022/04/20 02:50:29;;;;;;;0.30;0.30;;;9.20;73.80;;;;;;4952461;29;20023;-65
2022/04/20 02:52:56;;;;;;;0.00;0.00;;;9.10;73.80;;;;;;4952230;29;20685;-64
2022/04/20 02:55:22;;;;;;;0.93;0.55;;;8.80;75.70;;;;;;4952309;28;20062;-64
2022/04/20 02:57:48;;;;;;;0.00;0.00;;;8.90;75.90;;;;;;4951978;29;20642;-64
2022/04/20 03:00:15;;;;;;;0.00;0.00;;;9.00;75.80;;;;;;4953401;28;20030;-64
2022/04/20 03:02:41;;;;;;;0.10;0.10;;;8.90;75.60;;;;;;4953184;28;20045;-64
2022/04/20 03:05:07;;;;;;;0.03;0.03;;;8.90;75.20;;;;;;4953175;28;20458;-63
2022/04/20 03:07:33;;;;;;;0.10;0.10;;;8.90;74.70;;;;;;4952990;28;20470;-64
2022/04/20 03:09:59;;;;;;;0.05;0.05;;;9.00;74.60;;;;;;4951997;29;20031;-64
2022/04/20 03:12:25;;;;;;;0.20;0.20;;;9.10;74.40;;;;;;4953135;28;20090;-64
2022/04/20 03:14:54;;;;;;;0.10;0.10;;;9.20;74.20;;;;;;4946599;28;20035;-64
2022/04/20 03:17:24;;;;;;;0.28;0.28;;;9.00;74.30;;;;;;4964023;28;20031;-64
2022/04/20 03:19:51;;;;;;;0.00;0.00;;;9.00;74.70;;;;;;4965027;28;20038;-64
2022/04/20 03:22:17;;;;;;;0.00;0.00;;;9.10;74.30;;;;;;4964427;28;20032;-63
2022/04/20 03:24:44;;;;;;;0.50;0.50;;;8.90;74.70;;;;;;4933402;29;20516;-64
2022/04/20 03:27:10;;;;;;;0.00;0.00;;;8.90;74.80;;;;;;4948274;29;20024;-65
2022/04/20 03:29:36;;;;;;;0.10;0.10;;;9.00;74.90;;;;;;4964504;28;20086;-64
2022/04/20 03:32:19;;;;;;;0.00;0.00;;;9.00;74.90;;;;;;4933861;29;20070;-64
2022/04/20 03:34:45;;;;;;;0.00;0.00;;;8.80;75.60;;;;;;4964690;28;20403;-63
2022/04/20 03:37:11;;;;;;;0.22;0.22;;;8.70;76.00;;;;;;4964296;28;20042;-64
2022/04/20 03:39:38;;;;;;;0.05;0.05;;;8.40;77.10;;;;;;4933997;29;20031;-63
2022/04/20 03:42:04;;;;;;;0.10;0.10;;;8.10;78.40;;;;;;4964084;28;20452;-64
2022/04/20 03:44:31;;;;;;;0.00;0.00;;;8.10;79.00;;;;;;4932284;29;20491;-64
2022/04/20 03:46:57;;;;;;;0.10;0.10;;;7.90;79.40;;;;;;4964162;28;20038;-65
2022/04/20 03:49:23;;;;;;;0.30;0.30;;;8.00;79.60;;;;;;4964159;28;20027;-64
2022/04/20 03:51:49;;;;;;;0.00;0.00;;;8.00;79.70;;;;;;4933681;29;20034;-64
2022/04/20 03:54:15;;;;;;;0.00;0.00;;;8.10;79.70;;;;;;4964053;28;20403;-64
2022/04/20 03:59:25;;;;;;;0.10;0.10;;;7.90;80.70;;;;;;4961959;28;20040;-64
2022/04/20 04:01:51;;;;;;;0.08;0.08;;;7.80;81.20;;;;;;4910295;28;20039;-64
2022/04/20 04:04:18;;;;;;;1.38;0.32;;;8.00;81.10;;;;;;4945923;28;20038;-65
2022/04/20 04:06:44;;;;;;;0.00;0.00;;;8.00;81.20;;;;;;4937738;29;20162;-65
2022/04/20 04:09:10;;;;;;;0.32;0.32;;;8.00;81.40;;;;;;4940069;29;20122;-65
2022/04/20 04:11:36;;;;;;;0.05;0.05;;;7.90;81.60;;;;;;4932819;29;20023;-65
2022/04/20 04:14:01;;;;;;;0.00;0.00;;;8.00;81.60;;;;;;4927953;28;20042;-65
2022/04/20 04:16:27;;;;;;;0.30;0.30;;;8.00;81.70;;;;;;4949226;28;20418;-65
2022/04/20 04:18:53;;;;;;;0.63;0.63;;;8.00;81.70;;;;;;4946139;29;20106;-67
2022/04/20 04:21:20;;;;;;;0.00;0.00;;;8.00;81.90;;;;;;4943432;29;20115;-65
2022/04/20 04:23:46;;;;;;;0.00;0.00;;;8.00;82.00;;;;;;4942146;28;20020;-64
2022/04/20 04:26:13;;;;;;;0.00;0.00;;;8.00;81.60;;;;;;4927918;29;20029;-64
2022/04/20 04:28:40;;;;;;;0.00;0.00;;;8.00;81.70;;;;;;4947156;29;20023;-64
2022/04/20 04:31:06;;;;;;;0.05;0.05;;;8.00;81.70;;;;;;4951212;29;20031;-64
2022/04/20 04:33:34;;;;;;;1.17;0.55;;;8.00;82.10;;;;;;4936939;29;20111;-65
2022/04/20 04:36:03;;;;;;;0.10;0.10;;;8.00;82.00;;;;;;4951352;28;20074;-64
2022/04/20 04:38:29;;;;;;;0.45;0.45;;;8.00;82.50;;;;;;4936425;29;20035;-65
2022/04/20 04:40:55;;;;;;;0.08;0.08;;;8.00;82.90;;;;;;4968705;28;20068;-65
2022/04/20 04:43:21;;;;;;;0.00;0.00;;;7.90;83.60;;;;;;4955968;28;20039;-65
2022/04/20 04:48:48;;;;;;;0.00;0.00;;;7.80;83.60;;;;;;4943971;28;20057;-65
2022/04/20 04:51:15;;;;;;;0.38;0.38;;;7.50;85.60;;;;;;4955751;28;20027;-65
2022/04/20 04:53:42;;;;;;;0.10;0.10;;;7.70;85.70;;;;;;4954297;29;20031;-66
2022/04/20 04:56:07;;;;;;;0.10;0.10;;;7.60;86.10;;;;;;4954049;28;20044;-66
2022/04/20 04:58:33;;;;;;;0.25;0.25;;;7.60;86.50;;;;;;4950941;29;20037;-65
2022/04/20 05:00:59;;;;;;;0.22;0.22;;;7.60;86.90;;;;;;4937620;28;20044;-66
2022/04/20 05:03:25;;;;;;;1.20;0.85;;;7.70;86.40;;;;;;4936357;29;20054;-65
2022/04/20 05:05:51;;;;;;;0.10;0.10;;;7.80;86.10;;;;;;4950380;28;20385;-65
2022/04/20 05:08:17;;;;;;;0.28;0.28;;;7.70;86.30;;;;;;4947102;29;20119;-66
2022/04/20 05:10:43;;;;;;;0.05;0.05;;;7.70;86.70;;;;;;4916962;29;20507;-65
2022/04/20 05:13:09;;;;;;;0.00;0.00;;;7.70;86.60;;;;;;4931554;29;20036;-66
2022/04/20 05:15:36;;;;;;;0.10;0.10;;;7.90;86.30;;;;;;4950749;28;20042;-65
2022/04/20 05:18:02;;;;;;;0.25;0.25;;;7.80;86.40;;;;;;4935361;28;20023;-66
2022/04/20 05:20:28;;;;;;;0.47;0.47;;;7.90;86.50;;;;;;4950479;29;20442;-66
2022/04/20 05:22:55;;;;;;;0.10;0.10;;;7.80;86.80;;;;;;4935637;29;20031;-66
2022/04/20 05:25:20;;;;;;;0.20;0.20;;;7.70;87.40;;;;;;4935627;29;20090;-66
2022/04/20 05:27:46;;;;;;;0.10;0.10;;;7.80;87.50;;;;;;4950111;29;20058;-66
2022/04/20 05:30:14;;;;;;;0.20;0.20;;;7.90;87.30;;;;;;4935931;29;20098;-66
2022/04/20 05:32:41;;;;;;;0.00;0.00;;;7.90;87.00;;;;;;4933056;29;20518;-66
2022/04/20 05:35:09;;;;;;;0.00;0.00;;;8.10;86.90;;;;;;4954058;28;20035;-66
2022/04/20 05:43:04;;;;;;;0.00;0.00;;;8.10;87.20;;;;;;4931972;29;20091;-66
2022/04/20 05:45:30;;;;;;;0.10;0.10;;;8.10;86.80;;;;;;4947942;29;20542;-65
2022/04/20 05:47:58;;;;;;;0.00;0.00;;;8.00;87.70;;;;;;4934052;29;20617;-65
2022/04/20 05:50:25;;;;;;;0.00;0.00;;;8.10;87.80;;;;;;4949367;29;20504;-66
2022/04/20 05:52:51;;;;;;;0.03;0.03;;;8.00;87.20;;;;;;4946732;29;20044;-65
2022/04/20 05:55:17;;;;;;;0.00;0.00;;;8.00;88.00;;;;;;4934620;29;20032;-66
2022/04/20 05:57:42;;;;;;;0.15;0.15;;;8.30;87.40;;;;;;4934960;29;20670;-65
2022/04/20 06:00:09;;;;;;;0.10;0.10;;;8.40;86.90;;;;;;4938957;29;20042;-65
2022/04/20 06:02:34;;;;;;;0.10;0.10;;;8.40;86.70;;;;;;4949469;29;20074;-65
2022/04/20 06:05:01;;;;;;;0.13;0.13;;;8.50;86.30;;;;;;4937501;29;20059;-66
2022/04/20 06:07:27;;;;;;;0.95;0.88;;;8.60;86.70;;;;;;4928430;29;20034;-66
2022/04/20 06:09:53;;;;;;;0.10;0.10;;;8.60;86.60;;;;;;4935428;29;20070;-66
2022/04/20 06:12:20;;;;;;;0.00;0.00;;;8.60;86.40;;;;;;4934026;29;20074;-66
2022/04/20 06:14:46;;;;;;;0.30;0.30;;;8.70;86.70;;;;;;4933725;29;20031;-66
2022/04/20 06:17:13;;;;;;;0.40;0.40;;;8.60;87.10;;;;;;4934646;29;20476;-66
2022/04/20 06:19:39;;;;;;;0.00;0.00;;;8.60;86.90;;;;;;4934937;29;20035;-66
2022/04/20 06:22:04;;;;;;;0.77;0.43;;;8.80;86.30;;;;;;4935382;29;20032;-66
2022/04/20 06:24:30;;;;;;;0.15;0.15;;;8.90;86.00;;;;;;4949547;28;20102;-66
2022/04/20 06:26:56;;;;;;;0.22;0.22;;;9.10;85.50;;;;;;4934887;29;20107;-66
2022/04/20 06:29:22;;;;;;;0.00;0.00;;;9.20;85.20;;;;;;4934952;29;20046;-66
2022/04/20 06:31:47;;;;;;;0.00;0.00;;;9.30;84.70;;;;;;4949844;29;20510;-66
2022/04/20 06:34:13;;;;;;;0.00;0.00;;;9.20;84.60;;;;;;4934310;29;20093;-66
2022/04/20 06:36:39;;;;;;;0.52;0.52;;;9.10;84.70;;;;;;4950399;29;20043;-65
2022/04/20 06:39:05;;;;;;;0.00;0.00;;;9.20;85.00;;;;;;4953907;28;20399;-66
2022/04/20 06:41:31;;;;;;;0.15;0.15;;;9.20;85.70;;;;;;4951987;29;20125;-66
2022/04/20 06:43:57;;;;;;;1.27;0.85;;;9.30;84.70;;;;;;4944453;28;20023;-66
2022/04/20 06:46:23;;;;;;;0.75;0.75;;;9.40;84.00;;;;;;4942973;29;20048;-65
2022/04/20 06:48:49;;;;;;;0.20;0.20;;;9.40;84.30;;;;;;4949943;28;20028;-65
2022/04/20 06:51:15;;;;;;;0.10;0.10;;;9.60;83.80;;;;;;4953715;28;20078;-65
2022/04/20 06:59:10;;;;;;;0.00;0.00;;;9.60;83.40;;;;;;4953100;29;20590;-67
2022/04/20 07:01:36;;;;;;;0.00;0.00;;;9.70;83.60;;;;;;4952980;28;20476;-67
2022/04/20 07:04:02;;;;;;;0.00;0.00;;;9.70;83.60;;;;;;4953348;28;20058;-68
2022/04/20 07:06:27;;;;;;;0.28;0.28;;;9.80;82.50;;;;;;4952885;28;20027;-67
2022/04/20 07:08:54;;;;;;;0.30;0.30;;;9.80;83.40;;;;;;4952198;29;20035;-67
2022/04/20 07:11:20;;;;;;;0.35;0.35;;;10.00;81.60;;;;;;4952220;29;20457;-66
2022/04/20 07:13:48;;;;;;;0.00;0.00;;;10.20;81.40;;;;;;4953031;28;20071;-66
2022/04/20 07:16:14;;;;;;;0.20;0.20;;;10.20;81.60;;;;;;4932466;28;20842;-64
2022/04/20 07:18:40;;;;;;;0.00;0.00;;;10.20;81.60;;;;;;4944817;29;20034;-65
2022/04/20 07:21:06;;;;;;;0.00;0.00;;;10.20;80.60;;;;;;4936038;29;20403;-65
2022/04/20 07:23:32;;;;;;;0.28;0.28;;;10.40;80.10;;;;;;4967721;28;20399;-64
2022/04/20 07:25:57;;;;;;;0.00;0.00;;;10.50;79.90;;;;;;4951504;28;20027;-65
2022/04/20 07:28:23;;;;;;;0.10;0.10;;;10.50;78.30;;;;;;4952803;29;20042;-65
2022/04/20 07:30:49;;;;;;;0.10;0.10;;;10.60;78.70;;;;;;4952997;29;20027;-65
2022/04/20 07:33:16;;;;;;;0.00;0.00;;;10.60;78.70;;;;;;4935741;29;20038;-65
2022/04/20 07:35:46;;;;;;;0.03;0.03;;;10.70;78.00;;;;;;4935651;29;20031;-64
2022/04/20 07:38:12;;;;;;;0.00;0.00;;;10.90;77.70;;;;;;4951120;29;20395;-65
2022/04/20 07:40:38;;;;;;;0.30;0.30;;;10.80;77.30;;;;;;4951372;29;20102;-65
2022/04/20 07:43:04;;;;;;;0.00;0.00;;;10.90;76.60;;;;;;4967459;28;20119;-65
2022/04/20 07:45:30;;;;;;;0.25;0.25;;;11.00;76.00;;;;;;4952355;28;20035;-65
2022/04/20 07:47:57;;;;;;;0.68;0.68;;;11.00;75.70;;;;;;4951002;29;20387;-64
2022/04/20 07:50:24;;;;;;;0.00;0.00;;;11.00;75.10;;;;;;4951247;29;20066;-64
2022/04/20 07:53:00;;;;;;;0.20;0.20;;;11.10;76.30;;;;;;4951392;29;20027;-64
2022/04/20 07:55:32;;;;;;;0.00;0.00;;;11.30;74.50;;;;;;4948489;28;20463;-65
2022/04/20 07:58:02;;;;;;;0.00;0.00;;;11.10;73.30;;;;;;4951054;29;20086;-65
2022/04/20 08:00:28;;;;;;;0.00;0.00;;;11.20;74.00;;;;;;4934168;28;20036;-65
2022/04/20 08:03:16;;;;;;;0.25;0.25;;;11.30;73.90;;;;;;4932205;29;20042;-65
2022/04/20 08:05:46;;;;;;;0.03;0.03;;;11.50;74.30;;;;;;4941167;28;20027;-65
2022/04/20 08:08:12;;;;;;;0.00;0.00;;;11.60;74.20;;;;;;4950718;29;20535;-65
2022/04/20 08:10:38;;;;;;;0.03;0.03;;;11.60;71.50;;;;;;4952364;29;20374;-65
2022/04/20 08:15:50;;;;;;;0.05;0.05;;;11.70;70.80;;;;;;4940192;28;20035;-65
2022/04/20 08:18:17;;;;;;;0.00;0.00;;;11.70;71.60;;;;;;4932504;29;20035;-65
2022/04/20 08:20:43;;;;;;;0.00;0.00;;;11.80;70.20;;;;;;4931851;29;20423;-65
2022/04/20 08:23:09;;;;;;;0.03;0.03;;;11.90;69.40;;;;;;4931774;29;20477;-65
2022/04/20 08:25:34;;;;;;;0.10;0.10;;;12.00;69.40;;;;;;4932763;29;20067;-65
2022/04/20 08:28:00;;;;;;;0.00;0.00;;;12.20;70.00;;;;;;4932718;29;20118;-65
2022/04/20 08:30:27;;;;;;;0.25;0.25;;;12.30;71.20;;;;;;4931587;29;20079;-65
2022/04/20 08:32:53;;;;;;;0.00;0.00;;;12.30;69.40;;;;;;4932884;29;20024;-65
2022/04/20 08:35:19;;;;;;;0.20;0.20;;;12.30;68.50;;;;;;4937583;29;20094;-65
2022/04/20 08:37:46;;;;;;;0.00;0.00;;;12.20;68.00;;;;;;4952121;28;20114;-65
2022/04/20 08:40:12;;;;;;;0.03;0.03;;;12.40;66.00;;;;;;4952119;28;20039;-65
2022/04/20 08:42:40;;;;;;;0.10;0.10;;;12.50;66.10;;;;;;4950966;29;20078;-65
2022/04/20 08:45:07;;;;;;;0.20;0.20;;;12.60;64.80;;;;;;4951774;28;20039;-65
2022/04/20 08:47:39;;;;;;;0.95;0.35;;;12.60;64.60;;;;;;4951343;28;20091;-65
2022/04/20 08:50:08;;;;;;;0.45;0.45;;;12.70;65.10;;;;;;4935183;29;20035;-65
2022/04/20 08:52:39;;;;;;;0.00;0.00;;;12.70;64.00;;;;;;4935069;29;20159;-65
2022/04/20 08:55:17;;;;;;;0.00;0.00;;;12.80;64.40;;;;;;4950769;28;20043;-65
2022/04/20 08:57:45;;;;;;;0.25;0.25;;;12.80;63.40;;;;;;4951543;28;20042;-65
2022/04/20 09:00:21;;;;;;;0.10;0.10;;;12.90;63.50;;;;;;4951849;28;20125;-65
2022/04/20 09:02:55;;;;;;;1.23;0.90;;;13.00;63.50;;;;;;4950332;29;20030;-64
2022/04/20 09:05:22;;;;;;;0.00;0.00;;;13.10;62.50;;;;;;4948052;28;20369;-65
2022/04/20 09:07:48;;;;;;;0.65;0.65;;;13.20;63.20;;;;;;4949700;29;20507;-64
2022/04/20 09:10:16;;;;;;;0.00;0.00;;;13.50;62.90;;;;;;4951118;28;20420;-64
2022/04/20 09:12:44;;;;;;;0.38;0.38;;;13.40;61.50;;;;;;4954068;29;20027;-64
2022/04/20 09:15:27;;;;;;;0.10;0.10;;;13.60;61.40;;;;;;4954261;28;20031;-64
2022/04/20 09:17:55;;;;;;;0.00;0.00;;;13.50;61.30;;;;;;4954131;29;20031;-64
2022/04/20 09:20:21;;;;;;;0.00;0.00;;;13.20;61.00;;;;;;4955283;28;20451;-64
2022/04/20 09:23:07;;;;;;;0.25;0.25;;;13.40;61.10;;;;;;4954907;28;20027;-64
2022/04/20 09:25:39;;;;;;;0.30;0.30;;;13.60;60.40;;;;;;4955159;28;20447;-64
2022/04/20 09:28:07;;;;;;;0.32;0.32;;;13.60;60.20;;;;;;4953848;29;20396;-64
2022/04/20 09:30:39;;;;;;;0.00;0.00;;;13.80;60.60;;;;;;4954364;29;20020;-64
2022/04/20 09:33:07;;;;;;;0.00;0.00;;;13.90;59.40;;;;;;4954931;28;20035;-64
2022/04/20 09:35:51;;;;;;;0.00;0.00;;;14.10;60.60;;;;;;4953598;28;20030;-64
2022/04/20 09:38:21;;;;;;;0.00;0.00;;;14.20;62.20;;;;;;4937748;29;20086;-64
2022/04/20 09:40:49;;;;;;;0.00;0.00;;;14.20;62.00;;;;;;4953592;29;20387;-66
2022/04/20 09:43:20;;;;;;;0.00;0.00;;;14.30;60.50;;;;;;4955167;28;20618;-64
2022/04/20 09:49:09;;;;;;;0.30;0.30;;;14.50;60.00;;;;;;4953548;29;20110;-64
2022/04/20 09:51:41;;;;;;;0.32;0.32;;;14.30;58.00;;;;;;4953517;29;20035;-65
2022/04/20 09:54:27;;;;;;;0.00;0.00;;;14.50;59.90;;;;;;4954663;28;20066;-65
2022/04/20 09:57:11;;;;;;;0.00;0.00;;;14.70;59.50;;;;;;4952976;29;20110;-64
2022/04/20 10:00:03;;;;;;;0.00;0.00;;;14.80;58.80;;;;;;4953430;29;20066;-64
2022/04/20 10:02:30;;;;;;;0.00;0.00;;;14.80;59.00;;;;;;4953352;29;20032;-64
2022/04/20 10:04:57;;;;;;;0.20;0.20;;;14.90;59.10;;;;;;4952912;28;20627;-64
2022/04/20 10:07:23;;;;;;;0.00;0.00;;;14.90;58.10;;;;;;4953200;29;20499;-64
2022/04/20 10:09:49;;;;;;;0.00;0.00;;;14.50;58.80;;;;;;4912864;29;20043;-65
2022/04/20 10:12:18;;;;;;;0.00;0.00;;;14.80;58.70;;;;;;4944689;28;20028;-65
2022/04/20 10:17:46;;;;;;;0.50;0.40;;;15.40;58.70;;;;;;4934035;29;20785;-65
2022/04/20 10:20:13;;;;;;;0.00;0.00;;;15.70;59.00;;;;;;4934274;29;20032;-65
2022/04/20 10:22:40;;;;;;;0.00;0.00;;;15.20;57.80;;;;;;4934523;29;20039;-65
2022/04/20 10:25:07;;;;;;;0.00;0.00;;;15.50;57.90;;;;;;4917809;29;20089;-65
2022/04/20 10:28:06;;;;;;;0.00;0.00;;;15.70;57.80;;;;;;4934626;29;20484;-65
2022/04/20 10:31:12;;;;;;;0.28;0.28;;;15.40;55.90;;;;;;4933855;29;20024;-65
2022/04/20 10:33:40;;;;;;;0.10;0.10;;;15.60;56.50;;;;;;4935208;29;20092;-65
2022/04/20 10:36:12;;;;;;;0.00;0.00;;;15.60;58.50;;;;;;4933166;29;20063;-65
2022/04/20 10:38:38;;;;;;;0.10;0.10;;;15.80;56.30;;;;;;4934861;29;20036;-65
2022/04/20 10:41:10;;;;;;;0.20;0.20;;;15.30;57.00;;;;;;4949969;29;20031;-65
2022/04/20 10:43:42;;;;;;;0.00;0.00;;;15.80;57.90;;;;;;4934802;29;20028;-65
2022/04/20 10:46:19;;;;;;;0.22;0.22;;;16.00;56.00;;;;;;4934319;29;20496;-65
2022/04/20 10:48:52;;;;;;;0.10;0.10;;;16.30;55.70;;;;;;4949319;29;20264;-65
2022/04/20 10:51:32;;;;;;;0.00;0.00;;;16.00;56.10;;;;;;4948958;29;20094;-65
2022/04/20 10:54:26;;;;;;;1.17;0.57;;;16.40;58.10;;;;;;4934704;29;20039;-65
2022/04/20 10:57:02;;;;;;;0.00;0.00;;;16.60;54.70;;;;;;4948357;29;20376;-65
2022/04/20 10:59:31;;;;;;;0.00;0.00;;;16.60;56.00;;;;;;4934704;29;20040;-65
2022/04/20 11:02:02;;;;;;;2.03;0.90;;;16.60;54.40;;;;;;4934357;29;20551;-65
2022/04/20 11:04:50;;;;;;;0.28;0.28;;;16.80;54.50;;;;;;4933109;29;20118;-65
2022/04/20 11:07:18;;;;;;;0.45;0.38;;;17.10;54.50;;;;;;4933592;29;20034;-64
2022/04/20 11:09:48;;;;;;;0.25;0.10;;;17.20;54.10;;;;;;4948267;28;20024;-64
2022/04/20 11:18:38;;;;;;;0.00;0.00;;;17.20;54.00;;;;;;4933575;29;20039;-64
2022/04/20 11:21:04;;;;;;;0.00;0.00;;;17.00;54.30;;;;;;4933997;29;20036;-65
2022/04/20 11:23:58;;;;;;;0.38;0.20;;;17.00;55.20;;;;;;4933924;29;20393;-64
2022/04/20 11:26:40;;;;;;;0.10;0.10;;;17.30;55.90;;;;;;4933989;29;20114;-64
2022/04/20 11:29:17;;;;;;;0.00;0.00;;;17.20;54.80;;;;;;4934029;29;20361;-65
2022/04/20 11:31:57;;;;;;;1.02;0.35;;;17.20;55.50;;;;;;4948305;29;20039;-65
2022/04/20 11:34:26;;;;;;;0.00;0.00;;;17.30;55.30;;;;;;4946384;28;20506;-64
2022/04/20 11:36:57;;;;;;;0.10;0.10;;;17.80;54.80;;;;;;4948074;28;20032;-64
2022/04/20 11:39:25;;;;;;;0.00;0.00;;;17.10;52.80;;;;;;4948008;29;20043;-65
2022/04/20 11:41:54;;;;;;;0.25;0.20;;;17.30;52.90;;;;;;4933482;29;20028;-65
2022/04/20 11:44:32;;;;;;;0.08;0.08;;;17.80;54.40;;;;;;4931856;29;20067;-64
2022/04/20 11:47:07;;;;;;;0.63;0.40;;;17.90;54.20;;;;;;4933566;29;20107;-65
2022/04/20 11:49:36;;;;;;;0.28;0.25;;;17.30;54.60;;;;;;4933965;29;20030;-65
2022/04/20 11:52:06;;;;;;;0.30;0.30;;;17.90;54.80;;;;;;4933358;29;20031;-65
2022/04/20 11:54:34;;;;;;;0.38;0.38;;;18.20;54.90;;;;;;4947692;29;20550;-65
2022/04/20 11:57:00;;;;;;;5.65;0.65;;;18.50;53.10;;;;;;4933197;29;20031;-65
2022/04/20 11:59:27;;;;;;;0.10;0.10;;;17.60;54.80;;;;;;4933241;29;20042;-65
2022/04/20 12:01:54;;;;;;;0.00;0.00;;;18.20;54.70;;;;;;4933397;29;20031;-64
2022/04/20 12:04:24;;;;;;;0.10;0.10;;;17.70;54.50;;;;;;4931739;29;20063;-64
2022/04/20 12:06:53;;;;;;;0.00;0.00;;;17.30;55.30;;;;;;4948000;28;20091;-64
2022/04/20 12:09:21;;;;;;;0.20;0.20;;;17.80;57.50;;;;;;4932034;29;20448;-65
2022/04/20 12:11:56;;;;;;;0.00;0.00;;;18.70;54.90;;;;;;4947906;29;20035;-64
2022/04/20 12:14:25;;;;;;;0.10;0.10;;;18.60;51.90;;;;;;4931941;29;20039;-65
2022/04/20 12:16:52;;;;;;;0.00;0.00;;;18.70;52.70;;;;;;4931713;29;20031;-65
2022/04/20 12:19:22;;;;;;;0.00;0.00;;;18.90;51.60;;;;;;4931685;29;20115;-65
2022/04/20 12:21:50;;;;;;;0.32;0.32;;;18.50;51.80;;;;;;4916603;29;20474;-64
2022/04/20 12:24:26;;;;;;;0.55;0.55;;;18.30;51.70;;;;;;4931772;29;20048;-65
2022/04/20 12:26:55;;;;;;;0.60;0.32;;;19.10;52.60;;;;;;4932665;29;20063;-65
2022/04/20 12:29:24;;;;;;;0.32;0.28;;;19.70;51.40;;;;;;4931879;29;20036;-65
2022/04/20 12:31:56;;;;;;;0.15;0.15;;;19.60;50.30;;;;;;4932068;29;20086;-65
2022/04/20 12:34:31;;;;;;;0.00;0.00;;;19.50;52.40;;;;;;4932021;29;20035;-65
2022/04/20 12:37:08;;;;;;;0.00;0.00;;;19.70;51.60;;;;;;4931775;29;20027;-65
2022/04/20 12:39:44;;;;;;;0.50;0.40;;;19.80;51.00;;;;;;4947277;29;20028;-65
2022/04/20 12:42:19;;;;;;;0.20;0.20;;;19.60;51.60;;;;;;4932682;29;20075;-65
2022/04/20 12:44:47;;;;;;;0.20;0.20;;;20.00;50.90;;;;;;4931737;29;20043;-65
2022/04/20 12:47:16;;;;;;;0.10;0.10;;;20.50;49.60;;;;;;4950502;29;20476;-65
2022/04/20 12:49:43;;;;;;;0.75;0.70;;;19.40;50.40;;;;;;4936786;28;20039;-65
2022/04/20 12:52:25;;;;;;;18.42;1.45;;;19.60;50.30;;;;;;4951440;29;20082;-65
2022/04/20 12:55:06;;;;;;;0.50;0.40;;;19.40;50.60;;;;;;4950939;29;20492;-65
2022/04/20 13:03:13;;;;;;;0.00;0.00;;;19.40;49.80;;;;;;4948883;29;20452;-65
2022/04/20 13:05:41;;;;;;;2.20;0.20;;;20.30;48.90;;;;;;4943918;29;20122;-65
2022/04/20 13:08:10;;;;;;;0.00;0.00;;;20.60;47.40;;;;;;4938044;29;20137;-65
2022/04/20 13:10:41;;;;;;;1.38;0.73;;;20.20;47.80;;;;;;4955550;28;20659;-65
2022/04/20 13:13:07;;;;;;;0.55;0.45;;;20.50;49.80;;;;;;4954301;29;20031;-65
2022/04/20 13:15:34;;;;;;;1.45;0.25;;;21.90;46.30;;;;;;4954327;28;20153;-66
2022/04/20 13:18:01;;;;;;;0.00;0.00;;;21.20;47.30;;;;;;4954045;29;20092;-65
2022/04/20 13:20:29;;;;;;;2.20;0.65;;;22.00;46.30;;;;;;4954343;29;20495;-65
2022/04/20 13:22:56;;;;;;;0.03;0.03;;;20.50;47.00;;;;;;4955410;28;20108;-65
2022/04/20 13:28:07;;;;;;;0.50;0.45;;;21.90;46.10;;;;;;4954159;29;20117;-65
2022/04/20 13:30:36;;;;;;;0.63;0.63;;;23.20;44.30;;;;;;4955459;28;20023;-65
2022/04/20 13:33:08;;;;;;;0.38;0.10;;;21.90;43.20;;;;;;4954924;28;20027;-65
2022/04/20 13:35:34;;;;;;;0.40;0.30;;;21.00;46.20;;;;;;4954129;28;20027;-65
2022/04/20 13:38:01;;;;;;;0.00;0.00;;;20.60;46.80;;;;;;4953940;29;20035;-65
2022/04/20 13:40:26;;;;;;;0.47;0.22;;;21.90;47.90;;;;;;4955127;29;20035;-65
2022/04/20 13:42:54;;;;;;;0.43;0.08;;;21.40;44.40;;;;;;4953666;29;20094;-65